createdAt,value
2019-03-21T00:04:24.016Z,64.39
2019-03-21T00:09:26.903Z,64.84
2019-03-21T00:14:56.366Z,65.70
2019-03-21T00:20:00.495Z,65.58
2019-03-21T00:25:03.297Z,65.16
2019-03-21T00:30:10.700Z,65.45
2019-03-21T00:35:13.565Z,65.66
2019-03-21T00:40:19.219Z,66.11
2019-03-21T00:45:21.801Z,67.01
2019-03-21T00:50:25.103Z,67.05
2019-03-21T00:55:28.722Z,65.72
2019-03-21T01:00:34.560Z,66.62
2019-03-21T01:05:37.309Z,66.43
2019-03-21T01:10:39.952Z,66.99
2019-03-21T01:15:42.542Z,67.34
2019-03-21T01:20:45.125Z,67.97
2019-03-21T01:25:49.555Z,67.50
2019-03-21T01:30:52.186Z,67.27
2019-03-21T01:35:54.789Z,68.45
2019-03-21T01:40:57.714Z,68.90
2019-03-21T01:46:00.486Z,68.98
2019-03-21T01:51:03.077Z,68.71
2019-03-21T01:56:05.774Z,68.65
2019-03-21T02:01:09.013Z,69.14
2019-03-21T02:06:11.624Z,68.76
2019-03-21T02:11:14.428Z,69.64
2019-03-21T02:16:17.090Z,69.59
2019-03-21T02:21:20.309Z,69.21
2019-03-21T02:26:22.918Z,69.97
2019-03-21T02:31:25.500Z,70.09
2019-03-21T02:36:28.347Z,70.40
2019-03-21T02:41:30.988Z,69.84
2019-03-21T02:46:33.605Z,69.74
2019-03-21T02:51:36.264Z,69.84
2019-03-21T02:56:39.305Z,70.53
2019-03-21T03:01:41.990Z,70.05
2019-03-21T03:06:46.546Z,69.58
2019-03-21T03:11:49.314Z,70.30
2019-03-21T03:16:51.932Z,70.45
2019-03-21T03:21:55.020Z,70.96
2019-03-21T03:26:57.640Z,71.27
2019-03-21T03:32:00.336Z,71.37
2019-03-21T03:37:03.004Z,71.03
2019-03-21T03:42:05.675Z,70.37
2019-03-21T03:47:08.412Z,71.42
2019-03-21T03:52:11.032Z,70.99
2019-03-21T03:57:15.947Z,70.84
2019-03-21T04:02:18.842Z,71.62
2019-03-21T04:07:22.003Z,72.61
2019-03-21T04:12:24.809Z,72.17
2019-03-21T04:17:27.651Z,72.55
2019-03-21T04:22:30.273Z,72.47
2019-03-21T04:27:33.257Z,72.33
2019-03-21T04:32:35.876Z,72.85
2019-03-21T04:37:38.802Z,73.23
2019-03-21T04:42:41.710Z,73.46
2019-03-21T04:47:44.743Z,73.88
2019-03-21T04:52:47.383Z,74.05
2019-03-21T04:57:50.355Z,73.61
2019-03-21T05:02:54.981Z,73.69
2019-03-21T05:07:57.596Z,75.09
2019-03-21T05:13:00.722Z,74.69
2019-03-21T05:18:12.479Z,75.22
2019-03-21T05:23:15.269Z,75.30
2019-03-21T05:28:17.886Z,74.69
2019-03-21T05:33:20.546Z,74.98
2019-03-21T05:38:23.882Z,74.27
2019-03-21T05:43:33.287Z,75.11
2019-03-21T05:48:35.909Z,74.51
2019-03-21T05:53:38.606Z,74.67
2019-03-21T05:58:41.309Z,74.73
2019-03-21T06:03:50.492Z,74.87
2019-03-21T06:08:53.112Z,74.37
2019-03-21T06:13:56.120Z,74.59
2019-03-21T06:19:18.220Z,74.17
2019-03-21T06:24:41.990Z,73.61
2019-03-21T06:29:44.714Z,73.14
2019-03-21T06:34:47.574Z,72.80
2019-03-21T06:39:50.446Z,72.12
2019-03-21T06:44:53.133Z,71.25
2019-03-21T06:49:56.013Z,69.91
2019-03-21T06:55:40.416Z,70.18
2019-03-21T07:00:40.672Z,69.78
2019-03-21T07:05:43.291Z,69.38
2019-03-21T07:10:46.270Z,68.95
2019-03-21T07:15:49.112Z,68.66
2019-03-21T07:20:52.001Z,67.83
2019-03-21T07:25:54.633Z,67.32
2019-03-21T07:30:57.240Z,66.68
2019-03-21T07:36:00.175Z,65.81
2019-03-21T07:41:02.813Z,64.37
2019-03-21T07:46:05.767Z,64.47
2019-03-21T07:51:09.034Z,64.27
2019-03-21T07:56:11.616Z,62.87
2019-03-21T08:01:14.276Z,62.17
2019-03-21T08:06:17.156Z,61.28
2019-03-21T08:11:19.689Z,61.17
2019-03-21T08:16:22.644Z,60.60
2019-03-21T08:21:25.257Z,59.61
2019-03-21T08:26:27.855Z,59.91
2019-03-21T08:31:30.653Z,59.96
2019-03-21T08:36:33.531Z,59.98
2019-03-21T08:41:36.226Z,59.62
2019-03-21T08:46:39.005Z,59.07
2019-03-21T08:51:42.945Z,59.17
2019-03-21T08:56:46.130Z,59.05
2019-03-21T09:01:49.076Z,57.98
2019-03-21T09:06:52.772Z,58.15
2019-03-21T09:11:55.868Z,57.84
2019-03-21T09:16:58.496Z,56.75
2019-03-21T09:22:01.383Z,55.91
2019-03-21T09:27:04.145Z,55.63
2019-03-21T09:32:06.911Z,55.41
2019-03-21T09:37:09.614Z,53.55
2019-03-21T09:42:12.568Z,51.58
2019-03-21T09:47:15.203Z,52.52
2019-03-21T09:52:17.791Z,51.09
2019-03-21T09:57:20.476Z,50.93
2019-03-21T10:02:23.157Z,50.17
2019-03-21T10:07:25.754Z,46.74
2019-03-21T10:12:28.398Z,46.74
2019-03-21T10:17:31.138Z,46.56
2019-03-21T10:22:33.739Z,44.75
2019-03-21T10:27:36.323Z,44.75
2019-03-21T10:32:39.388Z,43.39
2019-03-21T10:37:42.043Z,43.94
2019-03-21T10:42:44.823Z,43.94
2019-03-21T10:47:48.323Z,38.95
2019-03-21T10:52:51.475Z,39.79
2019-03-21T10:57:54.445Z,40.61
2019-03-21T11:02:57.210Z,40.93
2019-03-21T11:07:59.845Z,40.63
2019-03-21T11:13:02.877Z,40.16
2019-03-21T11:18:05.613Z,41.22
2019-03-21T11:23:08.784Z,40.63
2019-03-21T11:28:11.639Z,40.42
2019-03-21T11:33:14.379Z,42.12
2019-03-21T11:38:17.074Z,42.11
2019-03-21T11:43:20.079Z,39.90
2019-03-21T11:48:22.750Z,40.04
2019-03-21T11:53:25.642Z,40.76
2019-03-21T11:58:28.278Z,38.03
2019-03-21T12:03:30.957Z,40.61
2019-03-21T12:08:33.551Z,40.20
2019-03-21T12:13:36.207Z,38.84
2019-03-21T12:18:38.895Z,36.97
2019-03-21T12:23:41.725Z,37.56
2019-03-21T12:28:44.390Z,39.38
2019-03-21T12:33:47.002Z,39.15
2019-03-21T12:38:49.698Z,38.52
2019-03-21T12:43:52.895Z,39.07
2019-03-21T12:48:55.511Z,37.32
2019-03-21T12:53:58.212Z,35.95
2019-03-21T12:59:00.836Z,38.51
2019-03-21T13:04:03.652Z,36.00
2019-03-21T13:09:07.391Z,37.55
2019-03-21T13:14:10.013Z,38.68
2019-03-21T13:19:12.666Z,37.34
2019-03-21T13:24:19.205Z,38.28
2019-03-21T13:29:19.914Z,38.98
2019-03-21T13:34:22.547Z,35.79
2019-03-21T13:39:25.402Z,38.82
2019-03-21T13:44:28.124Z,39.56
2019-03-21T13:49:30.823Z,39.48
2019-03-21T13:54:33.520Z,38.77
2019-03-21T13:59:36.210Z,37.30
2019-03-21T14:04:39.108Z,38.62
2019-03-21T14:09:42.220Z,36.37
2019-03-21T14:14:44.855Z,37.17
2019-03-21T14:19:47.487Z,36.37
2019-03-21T14:24:50.413Z,36.90
2019-03-21T14:30:01.198Z,35.54
2019-03-21T14:34:57.945Z,35.54
2019-03-21T14:40:00.864Z,36.06
2019-03-21T14:45:04.813Z,36.10
2019-03-21T14:50:08.213Z,35.36
2019-03-21T14:55:12.540Z,36.20
2019-03-21T15:00:17.162Z,35.97
2019-03-21T15:05:19.914Z,33.85
2019-03-21T15:10:22.579Z,31.83
2019-03-21T15:15:25.306Z,33.70
2019-03-21T15:20:27.957Z,33.16
2019-03-21T15:25:30.659Z,34.48
2019-03-21T15:30:33.362Z,35.45
2019-03-21T15:35:36.247Z,35.46
2019-03-21T15:40:39.017Z,34.26
2019-03-21T15:45:41.704Z,34.48
2019-03-21T15:50:44.298Z,34.69
2019-03-21T15:55:47.082Z,35.08
2019-03-21T16:00:50.051Z,35.32
2019-03-21T16:05:52.640Z,34.37
2019-03-21T16:10:55.502Z,35.32
2019-03-21T16:15:58.290Z,35.53
2019-03-21T16:21:00.938Z,35.69
2019-03-21T16:26:03.839Z,35.77
2019-03-21T16:31:06.492Z,35.73
2019-03-21T16:36:09.132Z,36.66
2019-03-21T16:41:11.849Z,37.15
2019-03-21T16:46:14.485Z,37.52
2019-03-21T16:51:17.109Z,38.11
2019-03-21T16:56:19.816Z,39.03
2019-03-21T17:01:22.409Z,38.81
2019-03-21T17:06:25.440Z,39.81
2019-03-21T17:11:28.095Z,40.50
2019-03-21T17:16:30.842Z,40.91
2019-03-21T17:21:33.753Z,41.33
2019-03-21T17:26:36.643Z,41.86
2019-03-21T17:31:39.409Z,42.39
2019-03-21T17:36:42.052Z,42.72
2019-03-21T17:41:44.721Z,42.80
2019-03-21T17:46:47.350Z,43.33
2019-03-21T17:51:50.204Z,43.47
2019-03-21T17:56:52.875Z,43.32
2019-03-21T18:01:55.537Z,43.83
2019-03-21T18:06:58.408Z,44.25
2019-03-21T18:12:00.990Z,43.67
2019-03-21T18:17:03.918Z,43.38
2019-03-21T18:22:13.343Z,44.06
2019-03-21T18:27:16.067Z,44.47
2019-03-21T18:32:18.749Z,44.29
2019-03-21T18:37:21.691Z,44.49
2019-03-21T18:42:24.591Z,44.95
2019-03-21T18:47:27.157Z,45.17
2019-03-21T18:52:29.945Z,45.27
2019-03-21T18:57:32.811Z,45.80
2019-03-21T19:02:35.473Z,45.73
2019-03-21T19:07:38.213Z,46.07
2019-03-21T19:12:40.805Z,46.11
2019-03-21T19:17:43.443Z,46.45
2019-03-21T19:22:46.704Z,46.71
2019-03-21T19:27:49.370Z,46.79
2019-03-21T19:32:52.041Z,47.07
2019-03-21T19:37:54.673Z,47.57
2019-03-21T19:42:57.325Z,47.68
2019-03-21T19:48:00.322Z,47.99
2019-03-21T19:53:03.246Z,48.52
2019-03-21T19:58:05.939Z,48.73
2019-03-21T20:03:08.595Z,48.82
2019-03-21T20:08:11.604Z,50.01
2019-03-21T20:13:15.427Z,50.33
2019-03-21T20:18:18.140Z,50.72
2019-03-21T20:23:21.024Z,51.48
2019-03-21T20:28:23.798Z,51.48
2019-03-21T20:33:26.419Z,51.37
2019-03-21T20:38:29.180Z,51.12
2019-03-21T20:43:31.891Z,51.03
2019-03-21T20:48:33.017Z,51.67
2019-03-21T20:53:35.708Z,51.67
2019-03-21T20:58:38.348Z,51.88
2019-03-21T21:03:41.164Z,52.12
2019-03-21T21:08:43.962Z,52.33
2019-03-21T21:13:46.651Z,53.41
2019-03-21T21:18:49.226Z,53.34
2019-03-21T21:23:52.205Z,54.25
2019-03-21T21:28:54.842Z,54.36
2019-03-21T21:33:57.597Z,54.94
2019-03-21T21:39:00.199Z,55.14
2019-03-21T21:44:03.086Z,54.92
2019-03-21T21:49:06.132Z,54.73
2019-03-21T21:54:08.785Z,55.00
2019-03-21T21:59:11.521Z,55.38
2019-03-21T22:04:14.156Z,55.44
2019-03-21T22:09:16.875Z,55.94
2019-03-21T22:14:19.516Z,56.28
2019-03-21T22:19:22.179Z,56.17
2019-03-21T22:24:24.842Z,56.57
2019-03-21T22:29:27.739Z,57.12
2019-03-21T22:34:30.367Z,58.26
2019-03-21T22:39:32.992Z,58.24
2019-03-21T22:44:35.935Z,58.24
2019-03-21T22:49:38.707Z,58.63
2019-03-21T22:54:41.439Z,58.80
2019-03-21T22:59:44.102Z,59.36
2019-03-21T23:04:46.692Z,60.15
2019-03-21T23:09:49.434Z,60.15
2019-03-21T23:14:52.088Z,60.78
2019-03-21T23:19:54.812Z,62.29
2019-03-21T23:24:57.775Z,62.29
2019-03-21T23:30:00.367Z,62.38
2019-03-21T23:35:03.233Z,61.71
2019-03-21T23:40:06.741Z,62.54
2019-03-21T23:45:10.216Z,62.54
2019-03-21T23:50:14.370Z,63.34
2019-03-21T23:55:17.012Z,64.30
